createdAt,value
2023-01-12T00:01:54.275Z,0.20
2023-01-12T00:04:22.329Z,0.39
2023-01-12T00:06:50.355Z,0.30
2023-01-12T00:09:18.295Z,0.39
2023-01-12T00:11:47.634Z,0.47
2023-01-12T00:14:16.330Z,0.58
2023-01-12T00:16:44.564Z,0.68
2023-01-12T00:19:15.589Z,0.79
2023-01-12T00:21:56.392Z,0.93
2023-01-12T00:24:26.406Z,1.00
2023-01-12T00:26:57.107Z,1.03
2023-01-12T00:29:25.980Z,1.04
2023-01-12T00:31:54.682Z,1.02
2023-01-12T00:34:23.072Z,1.21
2023-01-12T00:36:51.595Z,1.34
2023-01-12T00:39:20.055Z,1.33
2023-01-12T00:42:05.452Z,1.13
2023-01-12T00:44:52.385Z,0.91
2023-01-12T00:47:20.503Z,0.74
2023-01-12T00:49:48.494Z,0.79
2023-01-12T00:52:29.888Z,0.72
2023-01-12T00:54:58.643Z,0.60
2023-01-12T00:57:26.856Z,0.60
2023-01-12T00:59:58.224Z,0.52
2023-01-12T01:02:27.042Z,0.36
2023-01-12T01:04:55.027Z,0.46
2023-01-12T01:07:23.151Z,0.68
2023-01-12T01:09:51.518Z,0.69
2023-01-12T01:12:19.700Z,0.76
2023-01-12T01:14:48.517Z,0.76
2023-01-12T01:17:18.092Z,0.85
2023-01-12T01:19:46.351Z,0.79
2023-01-12T01:22:14.268Z,0.48
2023-01-12T01:24:42.291Z,0.41
2023-01-12T01:27:10.328Z,0.22
2023-01-12T01:29:38.312Z,0.23
2023-01-12T01:32:06.685Z,0.12
2023-01-12T01:34:36.445Z,0.17
2023-01-12T01:37:04.737Z,0.18
2023-01-12T01:39:32.651Z,0.28
2023-01-12T01:42:01.208Z,0.23
2023-01-12T01:44:54.320Z,0.40
2023-01-12T01:47:31.356Z,0.34
2023-01-12T01:50:04.907Z,0.36
2023-01-12T01:52:37.815Z,0.44
2023-01-12T01:55:10.028Z,0.50
2023-01-12T01:57:43.244Z,0.56
2023-01-12T02:00:13.696Z,0.54
2023-01-12T02:02:43.868Z,0.58
2023-01-12T02:05:15.006Z,0.62
2023-01-12T02:07:43.314Z,0.52
2023-01-12T02:10:12.530Z,0.36
2023-01-12T02:12:58.147Z,0.25
2023-01-12T02:15:47.190Z,0.29
2023-01-12T02:18:25.915Z,0.25
2023-01-12T02:21:08.381Z,0.34
2023-01-12T02:24:09.749Z,0.36
2023-01-12T02:27:13.686Z,0.36
2023-01-12T02:30:14.739Z,0.24
2023-01-12T02:32:55.581Z,0.39
2023-01-12T02:35:28.443Z,0.35
2023-01-12T02:38:04.939Z,0.16
2023-01-12T02:40:37.800Z,0.23
2023-01-12T02:43:11.606Z,0.40
2023-01-12T02:45:48.897Z,0.35
2023-01-12T02:48:24.219Z,0.56
2023-01-12T02:50:57.017Z,0.66
2023-01-12T02:53:31.201Z,0.56
2023-01-12T02:56:03.224Z,0.44
2023-01-12T02:58:34.154Z,0.36
2023-01-12T03:01:03.823Z,0.30
2023-01-12T03:03:36.177Z,0.16
2023-01-12T03:06:07.091Z,0.11
2023-01-12T03:08:38.877Z,0.31
2023-01-12T03:11:13.459Z,0.08
2023-01-12T03:13:46.636Z,0.18
2023-01-12T03:16:18.933Z,0.26
2023-01-12T03:18:54.773Z,0.24
2023-01-12T03:21:30.799Z,0.17
2023-01-12T03:24:05.115Z,0.33
2023-01-12T03:26:33.960Z,0.27
2023-01-12T03:29:08.886Z,0.36
2023-01-12T03:31:37.815Z,0.25
2023-01-12T03:34:07.141Z,0.18
2023-01-12T03:36:44.512Z,0.32
2023-01-12T03:39:19.401Z,0.25
2023-01-12T03:41:55.886Z,0.19
2023-01-12T03:44:32.570Z,0.22
2023-01-12T03:47:06.420Z,0.21
2023-01-12T03:49:40.943Z,0.21
2023-01-12T03:52:11.864Z,0.26
2023-01-12T03:54:41.791Z,0.42
2023-01-12T03:57:12.232Z,0.42
2023-01-12T03:59:40.385Z,0.44
2023-01-12T04:02:08.326Z,0.36
2023-01-12T04:04:37.647Z,0.48
2023-01-12T04:07:05.587Z,0.44
2023-01-12T04:09:33.548Z,0.45
2023-01-12T04:12:13.588Z,0.53
2023-01-12T04:14:43.223Z,0.66
2023-01-12T04:17:13.343Z,0.79
2023-01-12T04:19:43.155Z,0.55
2023-01-12T04:22:32.616Z,0.55
2023-01-12T04:25:00.561Z,0.59
2023-01-12T04:27:28.526Z,0.59
2023-01-12T04:29:56.533Z,0.62
2023-01-12T04:32:24.493Z,0.47
2023-01-12T04:34:53.821Z,0.67
2023-01-12T04:37:21.757Z,0.81
2023-01-12T04:39:49.707Z,0.85
2023-01-12T04:42:35.222Z,0.89
2023-01-12T04:45:03.203Z,1.06
2023-01-12T04:47:31.122Z,1.09
2023-01-12T04:50:00.412Z,1.09
2023-01-12T04:52:28.389Z,0.92
2023-01-12T04:54:56.957Z,1.09
2023-01-12T04:57:24.978Z,1.10
2023-01-12T04:59:52.954Z,1.12
2023-01-12T05:02:21.175Z,1.18
2023-01-12T05:04:49.484Z,1.30
2023-01-12T05:07:21.057Z,1.32
2023-01-12T05:10:06.422Z,1.48
2023-01-12T05:12:34.366Z,1.51
2023-01-12T05:15:03.694Z,1.39
2023-01-12T05:17:32.934Z,1.43
2023-01-12T05:20:01.188Z,1.43
2023-01-12T05:22:32.692Z,1.51
2023-01-12T05:25:00.597Z,1.50
2023-01-12T05:27:28.522Z,1.54
2023-01-12T05:29:57.283Z,1.08
2023-01-12T05:32:25.196Z,0.98
2023-01-12T05:34:53.391Z,0.72
2023-01-12T05:37:21.355Z,0.95
2023-01-12T05:39:50.675Z,1.03
2023-01-12T05:42:35.918Z,1.00
2023-01-12T05:45:03.834Z,1.13
2023-01-12T05:47:31.761Z,1.13
2023-01-12T05:49:59.674Z,1.25
2023-01-12T05:52:27.602Z,1.32
2023-01-12T05:54:56.929Z,1.41
2023-01-12T05:57:24.907Z,1.36
2023-01-12T05:59:52.888Z,1.42
2023-01-12T06:02:21.733Z,1.53
2023-01-12T06:04:49.955Z,1.33
2023-01-12T06:07:18.032Z,1.39
2023-01-12T06:09:45.994Z,1.44
2023-01-12T06:12:32.916Z,1.61
2023-01-12T06:15:00.818Z,1.72
2023-01-12T06:17:28.739Z,1.80
2023-01-12T06:19:56.670Z,1.88
2023-01-12T06:22:24.979Z,1.98
2023-01-12T06:24:53.901Z,2.00
2023-01-12T06:27:23.255Z,2.03
2023-01-12T06:29:51.183Z,1.74
2023-01-12T06:32:19.128Z,1.92
2023-01-12T06:34:47.051Z,2.05
2023-01-12T06:37:14.963Z,1.77
2023-01-12T06:39:42.875Z,1.88
2023-01-12T06:42:29.499Z,2.01
2023-01-12T06:44:59.294Z,2.13
2023-01-12T06:47:28.430Z,2.13
2023-01-12T06:49:56.390Z,2.09
2023-01-12T06:52:27.059Z,2.22
2023-01-12T06:54:55.177Z,2.25
2023-01-12T06:57:23.099Z,2.20
2023-01-12T06:59:51.065Z,2.13
2023-01-12T07:02:20.337Z,2.25
2023-01-12T07:04:48.350Z,2.18
2023-01-12T07:07:16.621Z,2.16
2023-01-12T07:09:44.542Z,2.08
2023-01-12T07:12:12.491Z,2.12
2023-01-12T07:14:40.429Z,2.16
2023-01-12T07:17:08.359Z,2.20
2023-01-12T07:19:37.652Z,2.28
2023-01-12T07:22:05.830Z,2.32
2023-01-12T07:24:33.764Z,2.32
2023-01-12T07:27:01.724Z,2.22
2023-01-12T07:29:29.701Z,2.22
2023-01-12T07:31:57.646Z,2.12
2023-01-12T07:34:25.602Z,2.18
2023-01-12T07:36:55.108Z,2.20
2023-01-12T07:39:23.010Z,2.22
2023-01-12T07:42:08.372Z,2.26
2023-01-12T07:44:36.300Z,2.31
2023-01-12T07:47:04.230Z,2.38
2023-01-12T07:49:32.151Z,2.43
2023-01-12T07:52:01.463Z,2.45
2023-01-12T07:54:29.369Z,2.49
2023-01-12T07:56:58.030Z,2.42
2023-01-12T07:59:27.636Z,2.46
2023-01-12T08:01:55.638Z,2.54
2023-01-12T08:04:24.002Z,2.54
2023-01-12T08:06:51.923Z,2.41
2023-01-12T08:09:21.222Z,2.28
2023-01-12T08:11:49.142Z,2.36
2023-01-12T08:14:25.398Z,2.34
2023-01-12T08:16:54.517Z,2.31
2023-01-12T08:19:25.381Z,2.38
2023-01-12T08:21:58.751Z,2.43
2023-01-12T08:24:32.515Z,2.41
2023-01-12T08:27:02.959Z,2.46
2023-01-12T08:29:36.283Z,2.36
2023-01-12T08:34:46.675Z,2.49
2023-01-12T08:37:17.407Z,2.50
2023-01-12T08:39:48.400Z,2.29
2023-01-12T08:42:16.371Z,2.28
2023-01-12T08:44:45.262Z,2.50
2023-01-12T08:47:19.173Z,2.42
2023-01-12T08:49:47.341Z,2.52
2023-01-12T08:52:17.399Z,2.52
2023-01-12T08:54:45.604Z,2.47
2023-01-12T08:57:16.367Z,2.18
2023-01-12T08:59:44.547Z,2.27
2023-01-12T09:02:13.241Z,2.38
2023-01-12T09:04:41.630Z,2.37
2023-01-12T09:07:09.885Z,2.30
2023-01-12T09:09:37.968Z,2.24
2023-01-12T09:12:06.950Z,2.06
2023-01-12T09:14:39.033Z,2.08
2023-01-12T09:17:07.752Z,2.20
2023-01-12T09:19:35.758Z,2.14
2023-01-12T09:22:03.693Z,2.12
2023-01-12T09:24:31.641Z,2.22
2023-01-12T09:27:00.017Z,2.26
2023-01-12T09:29:27.954Z,2.29
2023-01-12T09:31:57.414Z,2.24
2023-01-12T09:34:25.609Z,2.21
2023-01-12T09:36:56.228Z,2.20
2023-01-12T09:39:28.355Z,2.22
2023-01-12T09:42:15.202Z,2.29
2023-01-12T09:45:02.662Z,2.35
2023-01-12T09:47:37.245Z,2.38
2023-01-12T09:50:10.677Z,2.53
2023-01-12T09:52:43.479Z,2.57
2023-01-12T09:55:16.064Z,2.61
2023-01-12T09:58:07.766Z,2.68
2023-01-12T10:00:35.743Z,2.66
2023-01-12T10:03:16.911Z,2.70
2023-01-12T10:05:48.934Z,2.72
2023-01-12T10:08:19.871Z,2.65
2023-01-12T10:11:01.233Z,2.61
2023-01-12T10:13:43.836Z,2.64
2023-01-12T10:16:18.050Z,2.60
2023-01-12T10:18:50.096Z,2.67
2023-01-12T10:21:18.041Z,2.66
2023-01-12T10:23:46.027Z,2.72
2023-01-12T10:26:23.236Z,2.78
2023-01-12T10:28:54.012Z,2.91
2023-01-12T10:31:24.576Z,2.95
2023-01-12T10:34:10.226Z,2.98
2023-01-12T10:36:44.174Z,3.07
2023-01-12T10:39:30.460Z,3.12
2023-01-12T10:42:43.523Z,3.10
2023-01-12T10:45:18.378Z,3.20
2023-01-12T10:47:48.005Z,3.12
2023-01-12T10:50:27.485Z,3.17
2023-01-12T10:53:01.569Z,3.18
2023-01-12T10:55:33.731Z,3.28
2023-01-12T10:58:02.469Z,3.31
2023-01-12T11:00:33.154Z,3.33
2023-01-12T11:03:01.273Z,3.39
2023-01-12T11:05:38.706Z,3.20
2023-01-12T11:08:23.722Z,3.06
2023-01-12T11:10:51.755Z,3.02
2023-01-12T11:13:27.768Z,3.21
2023-01-12T11:16:06.657Z,3.26
2023-01-12T11:18:41.146Z,3.28
2023-01-12T11:21:13.866Z,3.43
2023-01-12T11:23:48.761Z,3.46
2023-01-12T11:26:20.596Z,3.49
2023-01-12T11:28:51.994Z,3.50
2023-01-12T11:31:23.848Z,3.52
2023-01-12T11:33:56.305Z,3.58
2023-01-12T11:36:30.165Z,3.44
2023-01-12T11:39:04.295Z,3.32
2023-01-12T11:41:38.617Z,3.21
2023-01-12T11:44:11.820Z,3.21
2023-01-12T11:46:46.646Z,3.23
2023-01-12T11:49:20.924Z,3.29
2023-01-12T11:51:51.981Z,3.29
2023-01-12T11:54:20.536Z,3.22
2023-01-12T11:57:11.411Z,3.07
2023-01-12T11:59:54.275Z,3.23
2023-01-12T12:02:37.840Z,3.11
2023-01-12T12:05:17.981Z,3.08
2023-01-12T12:08:04.252Z,3.06
2023-01-12T12:10:37.860Z,2.91
2023-01-12T12:13:23.169Z,2.90
2023-01-12T12:16:01.369Z,2.83
2023-01-12T12:18:43.558Z,2.82
2023-01-12T12:21:24.721Z,2.78
2023-01-12T12:24:04.156Z,2.77
2023-01-12T12:26:36.395Z,2.77
2023-01-12T12:29:27.640Z,2.82
2023-01-12T12:32:07.760Z,2.83
2023-01-12T12:35:12.092Z,2.87
2023-01-12T12:37:50.535Z,2.89
2023-01-12T12:40:55.320Z,2.76
2023-01-12T12:43:47.999Z,2.57
2023-01-12T12:46:23.946Z,2.57
2023-01-12T12:48:59.970Z,2.60
2023-01-12T12:51:29.099Z,2.77
2023-01-12T12:53:57.396Z,2.85
2023-01-12T12:56:29.826Z,2.83
2023-01-12T12:58:59.666Z,2.93
2023-01-12T13:02:00.332Z,3.03
2023-01-12T13:05:03.103Z,3.06
2023-01-12T13:07:37.073Z,3.14
2023-01-12T13:10:26.761Z,3.19
2023-01-12T13:13:02.446Z,3.18
2023-01-12T13:15:36.905Z,3.26
2023-01-12T13:18:07.204Z,3.33
2023-01-12T13:20:53.645Z,3.35
2023-01-12T13:23:44.636Z,3.39
2023-01-12T13:26:43.352Z,3.31
2023-01-12T13:29:47.930Z,3.30
2023-01-12T13:32:50.732Z,3.36
2023-01-12T13:35:55.769Z,3.30
2023-01-12T13:38:44.800Z,3.26
2023-01-12T13:41:35.159Z,3.29
2023-01-12T13:44:03.655Z,3.33
2023-01-12T13:46:39.324Z,3.34
2023-01-12T13:49:28.382Z,3.31
2023-01-12T13:52:01.620Z,3.31
2023-01-12T13:54:30.143Z,3.32
2023-01-12T13:57:01.032Z,3.26
2023-01-12T13:59:30.193Z,3.21
2023-01-12T14:01:59.833Z,3.21
2023-01-12T14:04:53.730Z,3.14
2023-01-12T14:07:36.699Z,3.18
2023-01-12T14:10:23.698Z,3.17
2023-01-12T14:13:16.000Z,3.10
2023-01-12T14:16:02.649Z,3.09
2023-01-12T14:18:43.826Z,2.95
2023-01-12T14:21:24.060Z,3.04
2023-01-12T14:23:52.289Z,3.02
2023-01-12T14:26:23.907Z,3.00
2023-01-12T14:28:53.091Z,2.94
2023-01-12T14:31:27.593Z,2.72
2023-01-12T14:33:59.157Z,2.93
2023-01-12T14:36:29.909Z,2.92
2023-01-12T14:39:00.369Z,2.89
2023-01-12T14:41:48.078Z,2.78
2023-01-12T14:44:36.106Z,2.89
2023-01-12T14:47:04.056Z,2.87
2023-01-12T14:49:35.153Z,2.86
2023-01-12T14:52:04.691Z,2.76
2023-01-12T14:54:34.290Z,2.77
2023-01-12T14:57:04.653Z,2.82
2023-01-12T14:59:35.191Z,2.75
2023-01-12T15:02:26.571Z,2.75
2023-01-12T15:04:59.479Z,2.72
2023-01-12T15:07:32.158Z,2.72
2023-01-12T15:10:03.984Z,2.76
2023-01-12T15:12:47.439Z,2.75
2023-01-12T15:15:17.157Z,2.73
2023-01-12T15:18:02.491Z,2.71
2023-01-12T15:20:52.959Z,2.62
2023-01-12T15:23:44.348Z,2.77
2023-01-12T15:26:12.438Z,2.77
2023-01-12T15:28:41.937Z,2.77
2023-01-12T15:31:18.720Z,2.80
2023-01-12T15:33:46.690Z,2.80
2023-01-12T15:36:16.802Z,2.75
2023-01-12T15:38:44.738Z,2.74
2023-01-12T15:41:18.000Z,2.79
2023-01-12T15:43:46.096Z,2.84
2023-01-12T15:46:19.818Z,2.77
2023-01-12T15:48:47.783Z,2.78
2023-01-12T15:51:17.208Z,2.79
2023-01-12T15:53:45.114Z,2.78
2023-01-12T15:56:15.424Z,2.75
2023-01-12T15:58:43.507Z,2.83
2023-01-12T16:01:17.701Z,2.85
2023-01-12T16:04:07.246Z,2.86
2023-01-12T16:06:37.486Z,2.85
2023-01-12T16:09:05.455Z,2.82
2023-01-12T16:11:33.442Z,2.74
2023-01-12T16:14:01.384Z,2.80
2023-01-12T16:16:29.528Z,2.81
2023-01-12T16:18:58.673Z,2.82
2023-01-12T16:21:28.476Z,2.83
2023-01-12T16:23:58.045Z,2.83
2023-01-12T16:26:26.467Z,2.83
2023-01-12T16:28:54.807Z,2.80
2023-01-12T16:31:22.808Z,2.84
2023-01-12T16:33:50.794Z,2.79
2023-01-12T16:36:18.710Z,2.82
2023-01-12T16:38:46.643Z,2.84
2023-01-12T16:41:19.985Z,2.68
2023-01-12T16:43:48.087Z,2.72
2023-01-12T16:46:16.998Z,2.70
2023-01-12T16:48:45.358Z,2.69
2023-01-12T16:51:14.233Z,2.71
2023-01-12T16:53:42.745Z,2.57
2023-01-12T16:56:12.480Z,2.63
2023-01-12T16:58:47.832Z,2.65
2023-01-12T17:01:17.847Z,2.64
2023-01-12T17:03:46.065Z,2.52
2023-01-12T17:06:15.989Z,2.48
2023-01-12T17:08:44.078Z,2.41
2023-01-12T17:11:14.012Z,2.53
2023-01-12T17:13:44.245Z,2.52
2023-01-12T17:16:13.427Z,2.50
2023-01-12T17:18:41.933Z,2.46
2023-01-12T17:21:12.852Z,2.34
2023-01-12T17:23:41.323Z,2.34
2023-01-12T17:26:13.407Z,2.25
2023-01-12T17:28:41.828Z,2.36
2023-01-12T17:31:14.581Z,2.47
2023-01-12T17:33:42.936Z,2.52
2023-01-12T17:36:12.987Z,2.57
2023-01-12T17:38:41.271Z,2.53
2023-01-12T17:41:30.120Z,2.46
2023-01-12T17:43:57.122Z,2.41
2023-01-12T17:46:26.491Z,2.47
2023-01-12T17:48:54.570Z,2.56
2023-01-12T17:51:22.635Z,2.60
2023-01-12T17:53:50.608Z,2.68
2023-01-12T17:56:18.587Z,2.68
2023-01-12T17:58:46.559Z,2.66
2023-01-12T18:01:15.170Z,2.65
2023-01-12T18:03:44.596Z,2.66
2023-01-12T18:06:18.625Z,2.64
2023-01-12T18:08:56.351Z,2.64
2023-01-12T18:11:25.324Z,2.68
2023-01-12T18:13:53.827Z,2.73
2023-01-12T18:16:22.808Z,2.59
2023-01-12T18:18:53.118Z,2.58
2023-01-12T18:21:24.683Z,2.65
2023-01-12T18:23:53.386Z,2.72
2023-01-12T18:26:25.251Z,2.67
2023-01-12T18:28:53.379Z,2.67
2023-01-12T18:31:23.607Z,2.77
2023-01-12T18:33:56.893Z,2.76
2023-01-12T18:36:26.536Z,2.65
2023-01-12T18:38:55.407Z,2.75
2023-01-12T18:41:41.834Z,2.81
2023-01-12T18:44:10.691Z,2.80
2023-01-12T18:46:59.576Z,2.80
2023-01-12T18:49:30.883Z,2.73
2023-01-12T18:52:16.840Z,2.77
2023-01-12T18:54:47.537Z,2.84
2023-01-12T18:57:17.156Z,2.84
2023-01-12T18:59:45.278Z,2.80
2023-01-12T19:02:13.815Z,2.74
2023-01-12T19:05:05.719Z,2.76
2023-01-12T19:07:44.031Z,2.75
2023-01-12T19:10:11.094Z,2.78
2023-01-12T19:12:39.100Z,2.77
2023-01-12T19:15:25.526Z,2.77
2023-01-12T19:17:53.462Z,2.73
2023-01-12T19:20:27.432Z,2.62
2023-01-12T19:23:12.922Z,2.52
2023-01-12T19:26:09.937Z,2.49
2023-01-12T19:28:38.359Z,2.49
2023-01-12T19:31:09.798Z,2.51
2023-01-12T19:33:38.865Z,2.45
2023-01-12T19:36:10.489Z,2.39
2023-01-12T19:38:39.659Z,2.46
2023-01-12T19:41:12.741Z,2.46
2023-01-12T19:43:45.452Z,2.44
2023-01-12T19:46:14.063Z,2.22
2023-01-12T19:48:42.089Z,2.29
2023-01-12T19:51:11.860Z,2.31
2023-01-12T19:53:40.588Z,2.34
2023-01-12T19:56:10.703Z,2.40
2023-01-12T19:58:38.815Z,2.41
2023-01-12T20:01:06.849Z,2.30
2023-01-12T20:03:35.938Z,2.35
2023-01-12T20:06:06.474Z,2.35
2023-01-12T20:08:35.803Z,2.36
2023-01-12T20:11:05.492Z,2.27
2023-01-12T20:13:34.529Z,2.38
2023-01-12T20:16:07.098Z,2.37
2023-01-12T20:18:35.122Z,2.36
2023-01-12T20:21:03.458Z,2.31
2023-01-12T20:23:31.408Z,2.32
2023-01-12T20:26:00.728Z,2.34
2023-01-12T20:28:28.740Z,2.31
2023-01-12T20:30:58.645Z,2.22
2023-01-12T20:33:28.444Z,2.34
2023-01-12T20:35:57.162Z,2.29
2023-01-12T20:38:25.310Z,2.26
2023-01-12T20:40:53.346Z,2.31
2023-01-12T20:43:22.684Z,2.24
2023-01-12T20:45:52.482Z,2.28
2023-01-12T20:48:20.465Z,2.31
2023-01-12T20:50:48.674Z,2.29
2023-01-12T20:53:16.959Z,2.28
2023-01-12T20:55:46.465Z,2.25
2023-01-12T20:58:15.105Z,2.21
2023-01-12T21:00:44.633Z,2.19
2023-01-12T21:03:12.687Z,2.25
2023-01-12T21:05:42.639Z,2.34
2023-01-12T21:08:11.342Z,2.45
2023-01-12T21:10:40.627Z,2.45
2023-01-12T21:13:08.833Z,2.36
2023-01-12T21:15:36.770Z,2.45
2023-01-12T21:18:06.171Z,2.50
2023-01-12T21:20:34.433Z,2.53
2023-01-12T21:23:02.475Z,2.51
2023-01-12T21:25:30.421Z,2.51
2023-01-12T21:27:58.410Z,2.57
2023-01-12T21:30:26.351Z,2.62
2023-01-12T21:32:55.125Z,2.42
2023-01-12T21:35:25.410Z,2.44
2023-01-12T21:37:53.402Z,2.52
2023-01-12T21:40:21.608Z,2.37
2023-01-12T21:43:08.971Z,2.34
2023-01-12T21:45:37.134Z,2.19
2023-01-12T21:48:06.039Z,2.41
2023-01-12T21:50:35.928Z,2.47
2023-01-12T21:53:04.502Z,2.51
2023-01-12T21:55:33.325Z,2.53
2023-01-12T21:58:01.969Z,2.49
2023-01-12T22:00:31.216Z,2.43
2023-01-12T22:02:59.517Z,2.49
2023-01-12T22:05:27.928Z,2.58
2023-01-12T22:07:57.886Z,2.60
2023-01-12T22:10:30.569Z,2.43
2023-01-12T22:13:02.880Z,2.52
2023-01-12T22:15:31.447Z,2.56
2023-01-12T22:18:00.224Z,2.48
2023-01-12T22:20:28.917Z,2.49
2023-01-12T22:22:58.264Z,2.48
2023-01-12T22:25:27.251Z,2.43
2023-01-12T22:27:55.537Z,2.45
2023-01-12T22:30:25.240Z,2.42
2023-01-12T22:32:55.566Z,2.43
2023-01-12T22:35:26.433Z,2.44
2023-01-12T22:37:54.783Z,2.40
2023-01-12T22:40:24.209Z,2.43
2023-01-12T22:43:09.451Z,2.42
2023-01-12T22:45:37.780Z,2.38
2023-01-12T22:48:06.652Z,2.37
2023-01-12T22:50:34.598Z,2.33
2023-01-12T22:53:02.575Z,2.31
2023-01-12T22:55:32.023Z,2.44
2023-01-12T22:58:00.404Z,2.52
2023-01-12T23:00:28.356Z,2.52
2023-01-12T23:03:02.767Z,2.56
2023-01-12T23:05:35.812Z,2.54
2023-01-12T23:08:05.568Z,2.50
2023-01-12T23:10:35.087Z,2.57
2023-01-12T23:13:19.118Z,2.59
2023-01-12T23:15:49.368Z,2.65
2023-01-12T23:18:19.203Z,2.66
2023-01-12T23:20:47.740Z,2.68
2023-01-12T23:23:18.091Z,2.70
2023-01-12T23:25:48.367Z,2.64
2023-01-12T23:28:17.057Z,2.63
2023-01-12T23:30:45.460Z,2.71
2023-01-12T23:33:13.384Z,2.68
2023-01-12T23:35:42.678Z,2.68
2023-01-12T23:38:15.880Z,2.72
2023-01-12T23:40:43.848Z,2.72
2023-01-12T23:43:13.187Z,2.66
2023-01-12T23:45:41.203Z,2.70
2023-01-12T23:48:09.296Z,2.74
2023-01-12T23:50:37.334Z,2.67
2023-01-12T23:53:05.526Z,2.66
2023-01-12T23:55:33.462Z,2.70
2023-01-12T23:58:02.298Z,2.77
